Time;durP1;ratioP1;P1;durP2;ratioP2;P2;SDS_P1;SDS_P2;PMS_P1;PMS_P2;Temp;Humidity;BMP_temperature;BMP_pressure;BME280_temperature;BME280_humidity;BME280_pressure;Samples;Min_cycle;Max_cycle;Signal;HPM_P1;HPM_P2
2021/03/15 00:00:42;;;;;;;6.28;5.18;;;2.30;99.90;;;;;;5092668;28;20020;-75
2021/03/15 00:03:09;;;;;;;8.80;5.95;;;2.30;99.90;;;;;;5074295;28;20028;-76
2021/03/15 00:05:35;;;;;;;7.60;5.90;;;2.20;99.90;;;;;;5074423;28;20024;-76
2021/03/15 00:08:00;;;;;;;7.45;5.57;;;2.20;99.90;;;;;;5057647;28;20111;-76
2021/03/15 00:10:27;;;;;;;7.20;5.63;;;2.20;99.90;;;;;;5092780;28;20026;-76
2021/03/15 00:12:53;;;;;;;7.25;5.55;;;2.20;99.90;;;;;;5074319;28;20089;-76
2021/03/15 00:15:23;;;;;;;7.75;5.65;;;2.20;99.90;;;;;;5092351;28;20036;-76
2021/03/15 00:17:50;;;;;;;7.47;5.30;;;2.30;99.90;;;;;;5092225;28;20027;-75
2021/03/15 00:20:17;;;;;;;9.80;6.15;;;2.40;99.90;;;;;;5092351;28;20102;-76
2021/03/15 00:22:44;;;;;;;6.78;5.50;;;2.40;99.90;;;;;;5092222;28;20027;-75
2021/03/15 00:25:11;;;;;;;9.57;6.32;;;2.30;99.90;;;;;;5092239;28;20020;-76
2021/03/15 00:27:39;;;;;;;8.57;6.38;;;2.30;99.90;;;;;;5092275;28;20540;-75
2021/03/15 00:30:07;;;;;;;6.95;5.88;;;2.30;99.90;;;;;;5092238;28;20028;-75
2021/03/15 00:32:33;;;;;;;7.03;5.63;;;2.30;99.90;;;;;;5092319;28;20092;-76
2021/03/15 00:34:59;;;;;;;8.23;5.40;;;2.30;99.90;;;;;;5073877;28;20024;-76
2021/03/15 00:37:24;;;;;;;8.00;6.10;;;2.30;99.90;;;;;;5074066;28;20024;-76
2021/03/15 00:39:50;;;;;;;7.63;6.00;;;2.30;99.90;;;;;;5092183;28;20031;-76
2021/03/15 00:42:16;;;;;;;9.27;6.90;;;2.30;99.90;;;;;;5092068;28;20024;-76
2021/03/15 00:44:42;;;;;;;9.40;6.80;;;2.40;99.90;;;;;;5073754;28;20029;-76
2021/03/15 00:47:08;;;;;;;9.00;6.43;;;2.40;99.90;;;;;;5092084;28;20024;-77
2021/03/15 00:49:33;;;;;;;9.15;7.38;;;2.40;99.90;;;;;;5091913;28;20024;-76
2021/03/15 00:51:59;;;;;;;9.85;6.72;;;2.30;99.90;;;;;;5092076;28;20028;-77
2021/03/15 00:54:25;;;;;;;8.77;6.28;;;2.30;99.90;;;;;;5092019;28;20039;-77
2021/03/15 00:56:51;;;;;;;11.73;7.10;;;2.40;99.90;;;;;;5075735;28;20032;-76
2021/03/15 00:59:16;;;;;;;7.93;6.40;;;2.40;99.90;;;;;;5059416;28;20036;-77
2021/03/15 01:01:42;;;;;;;8.70;6.82;;;2.30;99.90;;;;;;5100313;28;20030;-76
2021/03/15 01:04:11;;;;;;;8.93;7.47;;;2.30;99.90;;;;;;5095999;28;20020;-76
2021/03/15 01:06:37;;;;;;;8.15;6.78;;;2.40;99.90;;;;;;5096036;28;20025;-76
2021/03/15 01:09:04;;;;;;;9.05;7.57;;;2.50;99.90;;;;;;5077940;28;20047;-76
2021/03/15 01:11:30;;;;;;;9.75;7.35;;;2.50;99.90;;;;;;5061090;28;20028;-75
2021/03/15 01:13:56;;;;;;;11.27;8.45;;;2.60;99.90;;;;;;5095968;28;20146;-76
2021/03/15 01:16:22;;;;;;;9.13;6.95;;;2.80;99.90;;;;;;5095667;28;20024;-76
2021/03/15 01:18:47;;;;;;;9.70;7.78;;;2.60;99.90;;;;;;5077560;28;20071;-76
2021/03/15 01:21:14;;;;;;;8.75;7.43;;;2.60;99.90;;;;;;5095601;28;20417;-76
2021/03/15 01:23:40;;;;;;;9.93;7.30;;;2.70;99.90;;;;;;5095680;28;20020;-76
2021/03/15 01:26:06;;;;;;;9.45;7.63;;;2.70;99.90;;;;;;5095685;28;20291;-76
2021/03/15 01:28:32;;;;;;;10.77;6.72;;;2.60;99.90;;;;;;5095502;28;20028;-76
2021/03/15 01:30:59;;;;;;;13.23;7.85;;;2.60;99.90;;;;;;5095633;28;20031;-76
2021/03/15 01:33:26;;;;;;;9.07;7.28;;;2.70;99.90;;;;;;5060708;28;20395;-76
2021/03/15 01:35:52;;;;;;;15.57;8.82;;;2.80;99.90;;;;;;5095371;28;20040;-76
2021/03/15 01:38:18;;;;;;;12.38;7.72;;;2.60;99.90;;;;;;5095348;28;20036;-76
2021/03/15 01:40:44;;;;;;;13.60;8.82;;;2.70;99.90;;;;;;5095403;28;20392;-76
2021/03/15 01:43:10;;;;;;;10.65;7.40;;;2.80;99.90;;;;;;5095179;28;20102;-76
2021/03/15 01:45:37;;;;;;;12.65;8.35;;;2.90;99.90;;;;;;5095236;28;20035;-76
2021/03/15 01:48:05;;;;;;;9.38;7.60;;;2.90;99.90;;;;;;5095216;28;20376;-76
2021/03/15 01:50:31;;;;;;;11.18;8.35;;;2.90;99.90;;;;;;5076951;28;20109;-76
2021/03/15 01:52:57;;;;;;;13.07;7.68;;;3.00;99.90;;;;;;5060363;28;20031;-76
2021/03/15 01:55:24;;;;;;;17.10;8.32;;;2.90;99.90;;;;;;5076810;28;20020;-76
2021/03/15 01:57:50;;;;;;;12.23;7.00;;;3.00;99.90;;;;;;5094913;28;20027;-76
2021/03/15 02:00:19;;;;;;;14.32;8.23;;;3.00;99.90;;;;;;5095090;28;20447;-75
2021/03/15 02:02:58;;;;;;;11.63;7.32;;;2.90;99.90;;;;;;5095158;28;20495;-76
2021/03/15 02:05:25;;;;;;;16.65;9.60;;;2.80;99.90;;;;;;5094880;28;20031;-75
2021/03/15 02:07:52;;;;;;;14.52;8.70;;;2.80;99.90;;;;;;5078884;28;20021;-76
2021/03/15 02:10:18;;;;;;;13.23;8.88;;;2.70;99.90;;;;;;5094420;28;20391;-76
2021/03/15 02:13:11;;;;;;;15.02;8.98;;;2.80;99.90;;;;;;5094817;28;20047;-76
2021/03/15 02:15:52;;;;;;;10.82;7.47;;;2.80;99.90;;;;;;5076749;28;20078;-77
2021/03/15 02:18:18;;;;;;;11.45;7.93;;;2.80;99.90;;;;;;5059895;28;20063;-75
2021/03/15 02:21:12;;;;;;;12.15;8.10;;;2.80;99.90;;;;;;5061546;28;20055;-77
2021/03/15 02:23:41;;;;;;;12.15;8.00;;;2.70;99.90;;;;;;5096628;28;20028;-77
2021/03/15 02:26:21;;;;;;;11.02;7.97;;;2.70;99.90;;;;;;5095140;28;20108;-77
2021/03/15 02:29:28;;;;;;;12.02;9.07;;;2.60;99.90;;;;;;5077026;28;20056;-77
2021/03/15 02:32:05;;;;;;;13.75;8.65;;;2.50;99.90;;;;;;5095107;28;20034;-77
2021/03/15 02:34:34;;;;;;;12.93;9.07;;;2.30;99.90;;;;;;5059482;28;20081;-76
2021/03/15 02:37:05;;;;;;;13.02;10.00;;;2.20;99.90;;;;;;5094309;28;20024;-77
2021/03/15 02:39:36;;;;;;;12.38;9.38;;;2.40;99.90;;;;;;5076149;28;20483;-77
2021/03/15 02:42:05;;;;;;;17.85;9.68;;;2.30;99.90;;;;;;5059542;28;20024;-77
2021/03/15 02:44:34;;;;;;;18.45;9.30;;;2.20;99.90;;;;;;5093978;28;20066;-76
2021/03/15 02:47:06;;;;;;;14.10;8.85;;;2.40;99.90;;;;;;5094084;28;20039;-76
2021/03/15 02:49:34;;;;;;;;;;;2.50;99.90;;;;;;5094485;28;20069;-77
2021/03/15 02:52:01;;;;;;;12.88;8.57;;;2.50;99.90;;;;;;5094092;28;19911;-77
2021/03/15 02:54:29;;;;;;;16.00;8.90;;;2.60;99.90;;;;;;5093784;28;20070;-76
2021/03/15 02:56:56;;;;;;;12.80;9.45;;;2.40;99.90;;;;;;5093937;28;20044;-77
2021/03/15 02:59:22;;;;;;;14.65;9.27;;;2.40;99.90;;;;;;5093838;28;20035;-77
2021/03/15 03:01:49;;;;;;;14.50;9.70;;;2.20;99.90;;;;;;5093717;28;20075;-77
2021/03/15 03:04:16;;;;;;;12.13;9.07;;;2.20;99.90;;;;;;5075591;28;20403;-77
2021/03/15 03:06:44;;;;;;;16.52;10.20;;;2.30;99.90;;;;;;5093698;28;20016;-77
2021/03/15 03:09:13;;;;;;;12.80;8.93;;;2.20;99.90;;;;;;5093514;28;20027;-76
2021/03/15 03:11:40;;;;;;;17.67;9.82;;;2.40;99.90;;;;;;5093835;28;20456;-76
2021/03/15 03:14:09;;;;;;;16.90;9.93;;;2.40;99.90;;;;;;5093651;28;20020;-77
2021/03/15 03:16:38;;;;;;;14.27;8.57;;;2.30;99.90;;;;;;5075117;28;20020;-76
2021/03/15 03:19:07;;;;;;;16.02;9.27;;;2.40;99.90;;;;;;5093451;28;20028;-77
2021/03/15 03:21:34;;;;;;;14.13;9.65;;;2.20;99.90;;;;;;5092494;28;20057;-77
2021/03/15 03:24:03;;;;;;;11.93;9.50;;;2.10;99.90;;;;;;5092970;28;20511;-76
2021/03/15 03:26:30;;;;;;;14.63;9.27;;;2.10;99.90;;;;;;5093576;28;20028;-75
2021/03/15 03:28:57;;;;;;;17.92;9.63;;;2.10;99.90;;;;;;5093230;28;20045;-75
2021/03/15 03:31:31;;;;;;;12.90;9.10;;;2.30;99.90;;;;;;5093287;28;20043;-75
2021/03/15 03:33:59;;;;;;;15.50;9.23;;;2.30;99.90;;;;;;5058424;28;20035;-76
2021/03/15 03:36:25;;;;;;;12.57;8.55;;;2.20;99.90;;;;;;5074919;28;20023;-76
2021/03/15 03:38:54;;;;;;;15.55;9.43;;;2.10;99.90;;;;;;5092922;28;20016;-76
2021/03/15 03:41:19;;;;;;;14.25;9.40;;;2.00;99.90;;;;;;5093112;28;20110;-76
2021/03/15 03:43:45;;;;;;;18.52;9.15;;;2.10;99.90;;;;;;5092940;28;20112;-76
2021/03/15 03:46:12;;;;;;;16.23;9.73;;;2.00;99.90;;;;;;5093000;28;20028;-76
2021/03/15 03:48:38;;;;;;;15.85;9.23;;;2.10;99.90;;;;;;5074792;28;20024;-76
2021/03/15 03:51:05;;;;;;;13.38;8.80;;;2.00;99.90;;;;;;5092963;28;20387;-76
2021/03/15 03:54:12;;;;;;;13.18;8.68;;;2.00;99.90;;;;;;5092780;28;20391;-76
2021/03/15 03:56:49;;;;;;;27.45;8.77;;;2.00;99.90;;;;;;4990768;28;20105;-76
2021/03/15 03:59:18;;;;;;;12.07;8.73;;;2.00;99.90;;;;;;5061696;28;20525;-76
2021/03/15 04:01:48;;;;;;;14.80;8.98;;;2.00;99.90;;;;;;5057705;28;20024;-76
2021/03/15 04:04:19;;;;;;;15.50;8.70;;;2.00;99.90;;;;;;5074489;28;20027;-76
2021/03/15 04:06:47;;;;;;;15.80;8.77;;;1.90;99.90;;;;;;5092527;28;20024;-76
2021/03/15 04:09:15;;;;;;;12.95;9.65;;;1.90;99.90;;;;;;5092524;28;20103;-76
2021/03/15 04:11:49;;;;;;;14.10;8.43;;;1.90;99.90;;;;;;5092542;28;20136;-76
2021/03/15 04:14:21;;;;;;;12.30;9.13;;;1.90;99.90;;;;;;5092512;28;20028;-76
2021/03/15 04:16:49;;;;;;;10.93;7.80;;;1.90;99.90;;;;;;5092331;28;20571;-76
2021/03/15 04:19:23;;;;;;;11.65;8.15;;;2.00;99.90;;;;;;5092409;28;20023;-76
2021/03/15 04:21:50;;;;;;;9.82;7.53;;;1.90;99.90;;;;;;5092071;28;20026;-76
2021/03/15 04:24:18;;;;;;;8.45;6.93;;;2.00;99.90;;;;;;5074090;28;20024;-76
2021/03/15 04:26:46;;;;;;;12.60;7.85;;;2.00;99.90;;;;;;5092278;28;20464;-76
2021/03/15 04:29:12;;;;;;;15.43;7.82;;;2.10;99.90;;;;;;5092419;28;20024;-76
2021/03/15 04:31:38;;;;;;;11.32;7.45;;;2.00;99.90;;;;;;5074263;28;20475;-76
2021/03/15 04:34:05;;;;;;;23.85;9.35;;;2.10;99.90;;;;;;5073953;28;20024;-76
2021/03/15 04:36:31;;;;;;;12.45;7.60;;;2.10;99.90;;;;;;5092054;28;20035;-76
2021/03/15 04:38:58;;;;;;;13.63;8.07;;;2.00;99.90;;;;;;5057147;28;20058;-76
2021/03/15 04:41:24;;;;;;;11.32;7.43;;;1.90;99.90;;;;;;5074184;28;20028;-76
2021/03/15 04:43:50;;;;;;;13.30;7.88;;;1.90;99.90;;;;;;5092111;28;20020;-76
2021/03/15 04:46:21;;;;;;;10.40;7.00;;;2.00;99.90;;;;;;5091955;28;20081;-76
2021/03/15 04:48:47;;;;;;;16.90;7.88;;;1.80;99.90;;;;;;5073867;28;20024;-76
2021/03/15 04:51:16;;;;;;;15.90;7.50;;;1.80;99.90;;;;;;5092171;28;20034;-76
2021/03/15 04:53:43;;;;;;;10.73;7.45;;;1.80;99.90;;;;;;5092128;28;20028;-77
2021/03/15 04:56:14;;;;;;;11.68;7.80;;;1.70;99.90;;;;;;5092400;28;20031;-76
2021/03/15 04:58:47;;;;;;;18.25;8.25;;;1.70;99.90;;;;;;5092357;28;20099;-77
2021/03/15 05:01:14;;;;;;;15.25;7.82;;;1.70;99.90;;;;;;5074145;28;20038;-77
2021/03/15 05:03:42;;;;;;;14.43;7.55;;;1.70;99.90;;;;;;5092292;28;20116;-77
2021/03/15 05:06:09;;;;;;;11.07;7.30;;;1.70;99.90;;;;;;5074219;28;20431;-76
2021/03/15 05:08:45;;;;;;;16.35;8.00;;;1.60;99.90;;;;;;5092430;28;20012;-77
2021/03/15 05:11:11;;;;;;;10.52;7.20;;;1.70;99.90;;;;;;5074366;28;20020;-77
2021/03/15 05:13:38;;;;;;;10.98;7.63;;;1.70;99.90;;;;;;5092299;28;20426;-76
2021/03/15 05:16:05;;;;;;;16.10;7.32;;;1.70;99.90;;;;;;5091818;28;20031;-76
2021/03/15 05:18:32;;;;;;;10.43;7.03;;;1.80;99.90;;;;;;5091605;28;20028;-76
2021/03/15 05:20:58;;;;;;;15.52;7.53;;;1.80;99.90;;;;;;5091242;28;20028;-77
2021/03/15 05:23:26;;;;;;;9.05;6.60;;;1.80;99.90;;;;;;5091635;28;20020;-77
2021/03/15 05:25:52;;;;;;;14.38;6.82;;;1.90;99.90;;;;;;5091544;28;20491;-76
2021/03/15 05:28:21;;;;;;;11.15;6.07;;;1.90;99.90;;;;;;5091527;28;20027;-76
2021/03/15 05:30:48;;;;;;;11.75;6.63;;;1.90;99.90;;;;;;5091660;28;20471;-77
2021/03/15 05:33:18;;;;;;;9.10;6.18;;;1.90;99.90;;;;;;5091624;28;20107;-77
2021/03/15 05:35:45;;;;;;;10.48;6.10;;;1.90;99.90;;;;;;5056713;28;20484;-77
2021/03/15 05:38:11;;;;;;;10.05;6.15;;;1.80;99.90;;;;;;5091416;28;20042;-76
2021/03/15 05:40:39;;;;;;;8.98;6.63;;;1.70;99.90;;;;;;5091614;28;20052;-76
2021/03/15 05:43:28;;;;;;;11.73;6.35;;;1.80;99.90;;;;;;5091362;28;20115;-76
2021/03/15 05:46:02;;;;;;;10.07;6.70;;;1.80;99.90;;;;;;5092929;28;20375;-77
2021/03/15 05:49:05;;;;;;;10.75;6.18;;;1.80;99.90;;;;;;5095549;28;20166;-76
2021/03/15 05:52:08;;;;;;;7.78;5.68;;;1.90;99.90;;;;;;5095115;28;20028;-76
2021/03/15 05:55:03;;;;;;;16.42;7.57;;;1.90;99.90;;;;;;5095084;28;20016;-76
2021/03/15 05:57:46;;;;;;;12.68;6.90;;;1.80;99.90;;;;;;5095017;28;20016;-76
2021/03/15 06:00:42;;;;;;;8.63;5.95;;;1.80;99.90;;;;;;5076965;28;20021;-77
2021/03/15 06:03:45;;;;;;;11.27;6.50;;;1.70;99.90;;;;;;5094945;28;20154;-77
2021/03/15 06:06:16;;;;;;;9.90;6.10;;;1.70;99.90;;;;;;5094901;28;20024;-76
2021/03/15 06:08:45;;;;;;;11.93;6.00;;;1.70;99.90;;;;;;5095061;28;20095;-76
2021/03/15 06:11:16;;;;;;;11.23;5.82;;;1.70;99.90;;;;;;5094733;28;20357;-75
2021/03/15 06:13:43;;;;;;;7.90;5.40;;;1.70;99.90;;;;;;5094675;28;20056;-75
2021/03/15 06:16:10;;;;;;;16.95;6.25;;;1.70;99.90;;;;;;5094608;28;20051;-75
2021/03/15 06:18:38;;;;;;;9.32;6.43;;;1.70;99.90;;;;;;5076374;28;20039;-75
2021/03/15 06:21:04;;;;;;;8.52;6.00;;;1.70;99.90;;;;;;5076421;28;20024;-75
2021/03/15 06:23:30;;;;;;;9.65;5.38;;;1.80;99.90;;;;;;5092651;28;20472;-76
2021/03/15 06:25:57;;;;;;;9.23;5.75;;;1.80;99.90;;;;;;5092862;28;20107;-75
2021/03/15 06:28:24;;;;;;;8.73;5.68;;;1.80;99.90;;;;;;5093967;28;20056;-75
2021/03/15 06:30:54;;;;;;;6.60;5.32;;;1.90;99.90;;;;;;5093067;28;20385;-75
2021/03/15 06:33:20;;;;;;;10.23;5.22;;;1.90;99.90;;;;;;5074903;28;20023;-75
2021/03/15 06:36:06;;;;;;;8.02;5.30;;;1.90;99.90;;;;;;5092651;28;20036;-75
2021/03/15 06:38:32;;;;;;;12.57;5.05;;;2.00;99.90;;;;;;5092750;28;20032;-75
2021/03/15 06:41:04;;;;;;;9.38;4.90;;;2.10;99.90;;;;;;5092985;28;20028;-75
2021/03/15 06:43:31;;;;;;;8.25;5.15;;;2.10;99.90;;;;;;5092602;28;20028;-75
2021/03/15 06:45:57;;;;;;;7.13;4.38;;;2.10;99.90;;;;;;5093052;28;20020;-75
2021/03/15 06:48:23;;;;;;;6.28;4.13;;;2.20;99.90;;;;;;5074293;28;20467;-75
2021/03/15 06:50:51;;;;;;;7.50;4.60;;;2.20;99.90;;;;;;5093181;28;20366;-75
2021/03/15 06:53:17;;;;;;;9.77;4.70;;;2.20;99.90;;;;;;5094361;28;20028;-75
2021/03/15 06:55:43;;;;;;;12.50;4.38;;;2.10;99.90;;;;;;5073893;28;20035;-75
2021/03/15 06:58:21;;;;;;;7.40;3.78;;;2.20;99.90;;;;;;5092648;28;20031;-76
2021/03/15 07:00:47;;;;;;;7.75;4.18;;;2.30;99.90;;;;;;5092221;28;20109;-75
2021/03/15 07:03:23;;;;;;;11.95;3.42;;;2.30;99.90;;;;;;5092991;28;20024;-75
2021/03/15 07:05:56;;;;;;;4.28;3.67;;;2.30;99.90;;;;;;5073600;28;20017;-76
2021/03/15 07:08:23;;;;;;;8.23;3.83;;;2.40;99.90;;;;;;5092532;28;20012;-75
2021/03/15 07:10:50;;;;;;;7.43;3.80;;;2.50;99.90;;;;;;5092354;28;20008;-75
2021/03/15 07:13:17;;;;;;;5.25;3.50;;;2.50;99.90;;;;;;5092508;28;20032;-75
2021/03/15 07:15:46;;;;;;;4.15;3.20;;;2.50;99.90;;;;;;5092303;28;20031;-75
2021/03/15 07:18:13;;;;;;;7.28;3.85;;;2.60;99.90;;;;;;5091570;28;20480;-76
2021/03/15 07:20:53;;;;;;;5.63;3.47;;;2.60;99.90;;;;;;5091947;28;20024;-76
2021/03/15 07:23:44;;;;;;;3.88;3.35;;;2.70;99.90;;;;;;5091753;28;20024;-75
2021/03/15 07:26:18;;;;;;;11.35;3.38;;;2.70;99.90;;;;;;5090459;28;20020;-76
2021/03/15 07:28:46;;;;;;;12.38;4.28;;;2.80;99.90;;;;;;5073341;28;20016;-75
2021/03/15 07:31:25;;;;;;;20.33;4.78;;;2.80;99.90;;;;;;5073914;28;20107;-76
2021/03/15 07:33:56;;;;;;;9.45;3.55;;;2.80;99.90;;;;;;5092093;28;20032;-75
2021/03/15 07:36:33;;;;;;;4.82;3.40;;;2.80;99.90;;;;;;5091934;28;20036;-75
2021/03/15 07:39:08;;;;;;;11.73;3.85;;;2.80;99.90;;;;;;5091165;28;20474;-75
2021/03/15 07:41:40;;;;;;;10.52;4.22;;;2.90;99.90;;;;;;5091848;28;20047;-75
2021/03/15 07:44:23;;;;;;;7.50;4.45;;;2.90;99.90;;;;;;5091988;28;20028;-75
2021/03/15 07:46:50;;;;;;;5.95;4.38;;;2.90;99.90;;;;;;5091079;28;20012;-75
2021/03/15 07:49:38;;;;;;;8.10;3.75;;;3.00;99.90;;;;;;5091461;28;20031;-76
2021/03/15 07:52:09;;;;;;;8.25;4.22;;;3.00;99.90;;;;;;5090896;28;20080;-75
2021/03/15 07:54:40;;;;;;;11.02;4.95;;;3.00;99.90;;;;;;5091487;28;20024;-75
2021/03/15 07:57:26;;;;;;;11.55;4.78;;;2.80;99.90;;;;;;5091021;28;20198;-75
2021/03/15 07:59:53;;;;;;;8.27;4.40;;;2.80;99.90;;;;;;5091187;28;20039;-75
2021/03/15 08:02:29;;;;;;;6.13;4.57;;;2.70;99.90;;;;;;5091051;28;20020;-75
2021/03/15 08:04:58;;;;;;;7.05;4.05;;;2.60;99.90;;;;;;5090032;28;20031;-75
2021/03/15 08:07:24;;;;;;;8.35;4.57;;;2.70;99.90;;;;;;5072795;28;20024;-74
2021/03/15 08:09:52;;;;;;;11.90;4.07;;;2.60;99.90;;;;;;5091022;28;20023;-74
2021/03/15 08:12:21;;;;;;;11.88;4.38;;;2.50;99.90;;;;;;5091116;28;20404;-74
2021/03/15 08:14:49;;;;;;;5.57;3.85;;;2.50;99.90;;;;;;5090791;28;20077;-74
2021/03/15 08:17:19;;;;;;;5.78;3.22;;;2.40;99.90;;;;;;5090889;28;20032;-74
2021/03/15 08:19:49;;;;;;;9.68;3.97;;;2.30;99.90;;;;;;5068742;28;20103;-74
2021/03/15 08:22:26;;;;;;;11.05;4.45;;;2.20;99.90;;;;;;5090949;28;20118;-75
2021/03/15 08:24:56;;;;;;;10.45;5.40;;;2.40;99.90;;;;;;5090609;28;20031;-75
2021/03/15 08:27:24;;;;;;;13.05;5.80;;;2.40;99.90;;;;;;5075331;28;20094;-76
2021/03/15 08:29:52;;;;;;;7.85;4.80;;;2.40;99.90;;;;;;5091123;28;20055;-76
2021/03/15 08:32:19;;;;;;;10.38;5.63;;;2.50;99.90;;;;;;5091219;28;20426;-76
2021/03/15 08:34:45;;;;;;;6.32;3.28;;;2.60;99.90;;;;;;5091130;28;20028;-76
2021/03/15 08:37:10;;;;;;;8.48;3.90;;;2.60;99.90;;;;;;5090350;28;20388;-76
2021/03/15 08:39:40;;;;;;;5.63;3.70;;;2.60;99.90;;;;;;5090965;28;20032;-75
2021/03/15 08:42:09;;;;;;;7.03;3.10;;;2.60;99.90;;;;;;5072493;28;20036;-75
2021/03/15 08:44:41;;;;;;;7.57;2.90;;;2.70;99.90;;;;;;5072751;28;20415;-74
2021/03/15 08:47:09;;;;;;;5.30;3.38;;;2.70;99.90;;;;;;5090000;28;20111;-75
2021/03/15 08:49:37;;;;;;;14.85;3.80;;;2.70;99.90;;;;;;5091257;28;20085;-75
2021/03/15 08:52:04;;;;;;;7.78;4.00;;;2.80;99.90;;;;;;5072881;28;20028;-74
2021/03/15 08:54:38;;;;;;;8.07;3.30;;;2.80;99.90;;;;;;5090281;28;20411;-76
2021/03/15 08:57:05;;;;;;;7.72;3.58;;;2.80;99.90;;;;;;5090804;28;20314;-75
2021/03/15 08:59:33;;;;;;;7.90;4.18;;;2.90;99.90;;;;;;5090013;28;20024;-75
2021/03/15 09:02:04;;;;;;;9.13;5.18;;;3.00;99.90;;;;;;5072712;28;20027;-75
2021/03/15 09:04:44;;;;;;;7.78;5.13;;;2.80;99.90;;;;;;5090452;28;20024;-75
2021/03/15 09:07:45;;;;;;;8.90;3.65;;;2.90;99.90;;;;;;5086949;28;20377;-76
2021/03/15 09:10:23;;;;;;;4.85;3.22;;;2.90;99.90;;;;;;5042651;28;20056;-74
2021/03/15 09:13:10;;;;;;;5.32;2.85;;;2.70;99.90;;;;;;5072262;28;20513;-75
2021/03/15 09:15:38;;;;;;;4.35;3.63;;;2.60;99.90;;;;;;5089913;28;20060;-75
2021/03/15 09:18:38;;;;;;;5.40;3.55;;;2.90;99.90;;;;;;5090318;28;20032;-77
2021/03/15 09:21:27;;;;;;;7.10;3.60;;;3.00;99.90;;;;;;5092149;28;20494;-74
2021/03/15 09:23:56;;;;;;;4.00;3.33;;;3.10;99.90;;;;;;5094414;28;20393;-75
2021/03/15 09:26:24;;;;;;;6.85;2.75;;;3.20;99.90;;;;;;5071101;28;20089;-76
2021/03/15 09:28:54;;;;;;;4.80;2.92;;;2.90;99.90;;;;;;5080406;28;20028;-74
2021/03/15 09:31:20;;;;;;;4.60;3.22;;;3.10;99.90;;;;;;5076274;28;20471;-73
2021/03/15 09:33:46;;;;;;;4.97;2.70;;;3.30;99.90;;;;;;5093984;28;20024;-74
2021/03/15 09:36:12;;;;;;;4.15;3.53;;;3.70;99.90;;;;;;5094090;28;20016;-74
2021/03/15 09:38:38;;;;;;;4.90;2.55;;;3.90;99.90;;;;;;5094413;28;20490;-76
2021/03/15 09:41:08;;;;;;;5.55;2.40;;;4.00;99.90;;;;;;5093979;28;20027;-75
2021/03/15 09:43:34;;;;;;;2.40;2.08;;;3.80;99.90;;;;;;5093975;28;20098;-75
2021/03/15 09:46:04;;;;;;;9.10;2.97;;;3.50;99.90;;;;;;5094135;28;20016;-74
2021/03/15 09:48:32;;;;;;;5.22;2.80;;;3.50;99.90;;;;;;5075958;28;20016;-75
2021/03/15 09:51:04;;;;;;;9.77;4.25;;;3.40;99.90;;;;;;5075549;28;20415;-75
2021/03/15 09:53:29;;;;;;;;;;;3.40;99.90;;;;;;5094267;28;20020;-75
2021/03/15 09:56:06;;;;;;;5.45;3.35;;;3.40;99.90;;;;;;5093496;28;19911;-75
2021/03/15 09:58:32;;;;;;;5.90;3.30;;;3.50;99.90;;;;;;5071930;28;20021;-76
2021/03/15 10:00:58;;;;;;;5.70;3.00;;;3.40;99.90;;;;;;5075438;28;20032;-75
2021/03/15 10:03:26;;;;;;;4.53;3.35;;;3.30;99.90;;;;;;5085520;28;20016;-75
2021/03/15 10:05:57;;;;;;;5.57;2.83;;;3.10;99.90;;;;;;5054264;28;20036;-76
2021/03/15 10:08:24;;;;;;;5.32;3.17;;;3.10;99.90;;;;;;5071257;28;20026;-75
2021/03/15 10:10:50;;;;;;;10.90;3.30;;;3.10;99.90;;;;;;5093398;28;20055;-76
2021/03/15 10:13:16;;;;;;;5.95;2.85;;;3.10;99.90;;;;;;5057957;28;20464;-76
2021/03/15 10:15:46;;;;;;;4.07;2.80;;;3.10;99.90;;;;;;5074933;28;20028;-75
2021/03/15 10:18:17;;;;;;;6.50;3.17;;;3.10;99.90;;;;;;5092450;28;20111;-76
2021/03/15 10:20:43;;;;;;;2.55;2.08;;;3.30;99.90;;;;;;5054271;28;20052;-75
2021/03/15 10:23:14;;;;;;;4.60;2.97;;;3.30;99.90;;;;;;5092575;28;20550;-76
2021/03/15 10:26:03;;;;;;;5.22;2.47;;;3.50;99.90;;;;;;5058034;28;20530;-75
2021/03/15 10:28:31;;;;;;;3.13;2.10;;;3.50;99.90;;;;;;5092880;28;20043;-75
2021/03/15 10:30:57;;;;;;;3.45;1.60;;;3.30;99.90;;;;;;5092598;28;20024;-75
2021/03/15 10:33:24;;;;;;;4.95;2.17;;;3.30;99.90;;;;;;5074771;28;20111;-75
2021/03/15 10:35:51;;;;;;;3.25;2.13;;;3.20;99.90;;;;;;5092401;28;20036;-74
2021/03/15 10:38:18;;;;;;;3.53;2.33;;;3.30;99.90;;;;;;5074651;28;20024;-75
2021/03/15 10:40:46;;;;;;;5.05;1.83;;;3.40;99.90;;;;;;5074300;28;20032;-75
2021/03/15 10:43:23;;;;;;;3.70;1.90;;;3.40;99.90;;;;;;5075449;28;20357;-74
2021/03/15 10:45:49;;;;;;;3.97;1.70;;;3.50;99.90;;;;;;5092973;28;20024;-74
2021/03/15 10:48:15;;;;;;;2.83;1.80;;;3.60;99.90;;;;;;5092737;28;20024;-75
2021/03/15 10:50:45;;;;;;;5.80;1.85;;;3.50;99.90;;;;;;5092610;28;20024;-76
2021/03/15 10:53:20;;;;;;;2.92;1.90;;;3.60;99.90;;;;;;5074534;28;20038;-74
2021/03/15 10:55:46;;;;;;;11.82;2.85;;;3.50;99.90;;;;;;5088742;28;20020;-75
2021/03/15 10:58:17;;;;;;;6.93;2.53;;;3.50;99.90;;;;;;5092210;28;20024;-74
2021/03/15 11:00:42;;;;;;;2.83;2.00;;;3.40;99.90;;;;;;5092893;28;20020;-74
2021/03/15 11:03:29;;;;;;;2.33;1.83;;;3.50;99.90;;;;;;5074006;28;20468;-76
2021/03/15 11:06:12;;;;;;;3.72;2.15;;;3.60;99.90;;;;;;5092521;28;20023;-75
2021/03/15 11:08:39;;;;;;;4.38;2.60;;;3.60;99.90;;;;;;5088286;28;20043;-75
2021/03/15 11:11:28;;;;;;;3.78;2.95;;;3.50;99.90;;;;;;5090369;28;20024;-74
2021/03/15 11:13:56;;;;;;;4.60;3.28;;;3.40;99.90;;;;;;5070252;28;20414;-75
2021/03/15 11:16:30;;;;;;;6.32;2.25;;;3.60;99.90;;;;;;5073877;28;20051;-75
2021/03/15 11:19:04;;;;;;;9.27;2.55;;;3.60;99.90;;;;;;5091880;28;20034;-75
2021/03/15 11:21:37;;;;;;;2.78;1.92;;;3.70;99.90;;;;;;5088463;28;20035;-75
2021/03/15 11:24:04;;;;;;;2.70;1.60;;;3.60;99.90;;;;;;5074226;28;20376;-75
2021/03/15 11:26:46;;;;;;;10.80;2.47;;;3.60;99.90;;;;;;5091660;28;20027;-74
2021/03/15 11:29:12;;;;;;;3.45;2.13;;;3.40;99.90;;;;;;5091057;28;20081;-75
2021/03/15 11:31:51;;;;;;;5.03;1.90;;;3.30;99.90;;;;;;5091553;28;20058;-75
2021/03/15 11:34:23;;;;;;;7.00;2.78;;;3.20;99.90;;;;;;5087658;28;20123;-75
2021/03/15 11:36:50;;;;;;;3.75;1.88;;;3.20;99.90;;;;;;5091379;28;20029;-75
2021/03/15 11:39:16;;;;;;;3.65;2.20;;;3.00;99.90;;;;;;5091891;28;20160;-74
2021/03/15 11:41:44;;;;;;;5.45;1.83;;;3.00;99.90;;;;;;5091304;28;20468;-75
2021/03/15 11:44:11;;;;;;;4.00;1.55;;;3.00;99.90;;;;;;5090688;28;20538;-75
2021/03/15 11:46:38;;;;;;;2.78;1.30;;;3.00;99.90;;;;;;5091792;28;20081;-74
2021/03/15 11:49:04;;;;;;;2.10;1.85;;;2.90;99.90;;;;;;5073145;28;20461;-75
2021/03/15 11:51:29;;;;;;;2.05;1.20;;;2.90;99.90;;;;;;5091911;28;20062;-74
2021/03/15 11:53:55;;;;;;;1.55;1.40;;;3.00;99.90;;;;;;5091456;28;20056;-73
2021/03/15 11:56:21;;;;;;;3.17;1.52;;;3.20;99.90;;;;;;5073368;28;20024;-74
2021/03/15 11:58:47;;;;;;;2.45;0.82;;;3.30;99.90;;;;;;5091012;28;20028;-74
2021/03/15 12:01:14;;;;;;;3.20;1.08;;;3.50;99.90;;;;;;5087083;28;20043;-74
2021/03/15 12:03:39;;;;;;;1.33;1.20;;;3.50;99.90;;;;;;5056626;28;20028;-74
2021/03/15 12:06:06;;;;;;;1.50;1.20;;;3.50;99.90;;;;;;5090956;28;20024;-74
2021/03/15 12:08:33;;;;;;;1.40;1.20;;;3.50;99.90;;;;;;5091497;28;20115;-75
2021/03/15 12:10:59;;;;;;;0.80;0.80;;;3.50;99.90;;;;;;5090786;28;20035;-75
2021/03/15 12:13:25;;;;;;;4.32;1.00;;;3.50;99.90;;;;;;5091188;28;20451;-75
2021/03/15 12:15:51;;;;;;;7.50;1.25;;;3.40;99.90;;;;;;5091243;28;20077;-75
2021/03/15 12:18:18;;;;;;;1.13;1.02;;;3.20;99.90;;;;;;5091244;28;20055;-75
2021/03/15 12:20:44;;;;;;;5.70;1.33;;;3.20;99.90;;;;;;5089454;28;20499;-75
2021/03/15 12:23:10;;;;;;;5.00;1.13;;;3.10;99.90;;;;;;5090812;28;20137;-74
2021/03/15 12:25:38;;;;;;;2.72;1.42;;;3.10;99.90;;;;;;5090943;28;20031;-75
2021/03/15 12:28:05;;;;;;;1.95;1.10;;;3.20;99.90;;;;;;5072142;28;20134;-75
2021/03/15 12:30:31;;;;;;;2.08;1.50;;;3.30;99.90;;;;;;5072986;28;20483;-76
2021/03/15 12:32:57;;;;;;;1.80;1.00;;;3.30;99.90;;;;;;5090768;28;20028;-75
2021/03/15 12:35:24;;;;;;;4.15;1.40;;;3.30;99.90;;;;;;5055983;28;20055;-75
2021/03/15 12:37:51;;;;;;;10.30;1.60;;;3.10;99.90;;;;;;5072482;28;20110;-76
2021/03/15 12:40:18;;;;;;;3.65;1.05;;;3.10;99.90;;;;;;5073111;28;20099;-75
2021/03/15 12:42:44;;;;;;;2.13;1.60;;;3.00;99.90;;;;;;5090705;28;20468;-75
2021/03/15 12:45:10;;;;;;;6.80;3.08;;;3.10;99.90;;;;;;5090363;28;20023;-75
2021/03/15 12:47:36;;;;;;;0.80;0.80;;;3.10;99.90;;;;;;5091101;28;20016;-76
2021/03/15 12:50:04;;;;;;;2.05;1.30;;;3.10;99.90;;;;;;5091686;28;20058;-75
2021/03/15 12:52:30;;;;;;;2.05;1.50;;;3.20;99.90;;;;;;5091037;28;20100;-74
2021/03/15 12:54:57;;;;;;;2.42;0.98;;;3.20;99.90;;;;;;5093301;28;20030;-74
2021/03/15 12:57:23;;;;;;;1.33;0.90;;;3.10;99.90;;;;;;5097993;28;20050;-75
2021/03/15 12:59:49;;;;;;;1.50;1.40;;;3.20;99.90;;;;;;5097685;28;20032;-75
2021/03/15 13:02:15;;;;;;;2.00;1.20;;;3.30;99.90;;;;;;5097191;28;20024;-75
2021/03/15 13:04:41;;;;;;;1.38;0.90;;;3.40;99.90;;;;;;5097472;28;20073;-74
2021/03/15 13:07:07;;;;;;;3.88;1.00;;;3.30;99.90;;;;;;5078993;28;20496;-75